Airfield :
LOGIN :

Register | Disclaimer

   EN    FR    IT 

 










Legend :    VFR   Marginal VFR   IFR   Intensive IFR   Very Intensive IFR
Visi :
Ceiling :
>= 8 km
>= 3000ft
5 to 8 km
1000 to 3000 ft
1500m to 5 km
500 to 1000 ft
800 to 1500m
200 to 500 ft
< 800m
< 200 ft
Symbols :   Thunderstorms  Fog  Heavy snow  Heavy precipitations  Wind > 20 kt
SIGMETs :     Misc.  Thunderstorms  Icing  Turbulence  Mountain Waves  Volcanic Ashes






- Airport Elevation : 7 ft
- IATA code : XHE


LFTH - Hyeres

CURRENT METAR :
  • 270900Z AUTO 30011KT 7000 +RA FEW027/// SCT039/// BKN047/// ///CB 09/07 Q0997 TEMPO 4000 SHRA BECMG 29015G30KT

EXPIRED METARs :
  • 270830Z AUTO 30008KT 5000 RA BR FEW037/// BKN048/// OVC054/// ///CB 08/07 Q0996 TEMPO 28015G25KT
  • 270800Z AUTO 32005KT 8000 -RA SCT033/// BKN041/// BKN047/// ///CB 08/07 Q0996 TEMPO 28015G25KT SHRA
  • 270730Z AUTO 36004KT 310V020 5000 RA BR FEW037/// BKN046/// OVC054/// ///CB 08/07 Q0996 TEMPO 28015G25KT
  • 270700Z AUTO 35003KT 7000 RA BKN036/// BKN046/// OVC062/// ///CB 08/07 Q0996 TEMPO 28015G25KT
  • 270630Z AUTO 34004KT 310V020 9999 BKN038/// BKN056/// BKN070/// ///CB 07/06 Q0996 TEMPO 28015G25KT SHRA

TAF TAF LFTH
Valid from the 27 at 09:00 until the 28 at 09:00 UTC


270800Z 2709/2809 VRB05KT 9999 SCT030 BKN040
PROB40
TEMPO 2709/2711 4000 SHRA FEW030CB
BECMG 2710/2712 29015G30KT



MET'MAP, your aeronautical weather chart ! - Copyright ORBIFLY December 2007 - Disclaimer

ORBIFLY MET'MAP TEAM :

Programming & Development : Alexandra Zaïnal
Concept & original design : Baudouin d'Aumeries
Assistance for programming : Marc-Olivier Méhu
Technical & hardware support : Manuel Goepfert

Contact : metmap@orbifly.com




SOURCES & CREDITS :

   NOAA